OTL weather

Boutilimit Airport
Boutilimit, Trarza Region, Mauritania

Public forecast

Using degrees Celsius for public forecast. Weather courtesy of forecast.io.

METAR (pilot weather report)

Closest report is Podor Airport, 53.6 nm (99.2 km) SSW. Retrieved 2019/07/23 16:00 UTC (51 minutes ago):

GOSP 231600Z 00000KT CAVOK 42/21 Q1007

TAF (pilot weather forecast)

Forecast is more than 12 hours old.

Closest forecast is Nouakchott International Airport, 79.9 nm (148.0 km) WNW. Retrieved 2016/06/26 18:52 UTC (3 years ago):

TAF GQNN 261700Z 2618/2800 28010KT 6000 NSC BECMG 2619/2621 BKN008 PROB40 TEMPO 2704/2708 4000 BR BECMG 2709/2711 FEW010